createdAt,value
2019-03-12T00:01:20.139Z,3.94
2019-03-12T00:03:48.080Z,3.98
2019-03-12T00:06:16.259Z,3.98
2019-03-12T00:08:46.248Z,3.99
2019-03-12T00:11:14.393Z,4.00
2019-03-12T00:13:45.119Z,3.96
2019-03-12T00:16:13.226Z,3.89
2019-03-12T00:18:41.209Z,3.92
2019-03-12T00:21:11.339Z,3.92
2019-03-12T00:23:40.181Z,3.85
2019-03-12T00:26:10.953Z,3.82
2019-03-12T00:28:38.933Z,3.78
2019-03-12T00:31:07.060Z,3.85
2019-03-12T00:33:37.694Z,3.82
2019-03-12T00:36:05.731Z,3.82
2019-03-12T00:38:33.632Z,3.82
2019-03-12T00:41:01.765Z,3.73
2019-03-12T00:43:29.772Z,3.76
2019-03-12T00:45:59.817Z,3.76
2019-03-12T00:48:27.929Z,3.84
2019-03-12T00:50:55.913Z,3.88
2019-03-12T00:53:24.024Z,3.77
2019-03-12T00:55:51.887Z,3.77
2019-03-12T00:58:21.950Z,3.73
2019-03-12T01:00:52.617Z,3.72
2019-03-12T01:03:21.219Z,3.74
2019-03-12T01:05:49.342Z,3.60
2019-03-12T01:08:17.318Z,3.60
2019-03-12T01:10:45.441Z,3.51
2019-03-12T01:13:17.548Z,3.54
2019-03-12T01:15:48.291Z,3.62
2019-03-12T01:18:18.879Z,3.66
2019-03-12T01:20:49.599Z,3.71
2019-03-12T01:23:17.631Z,3.77
2019-03-12T01:25:45.932Z,3.80
2019-03-12T01:28:14.070Z,3.83
2019-03-12T01:30:43.264Z,3.76
2019-03-12T01:33:13.854Z,3.77
2019-03-12T01:35:41.933Z,3.73
2019-03-12T01:38:10.078Z,3.76
2019-03-12T01:40:38.161Z,3.71
2019-03-12T01:43:06.219Z,3.78
2019-03-12T01:45:37.486Z,3.76
2019-03-12T01:48:05.512Z,3.66
2019-03-12T01:50:36.533Z,3.72
2019-03-12T01:53:04.558Z,3.72
2019-03-12T01:55:32.633Z,3.74
2019-03-12T01:58:03.283Z,3.77
2019-03-12T02:00:35.759Z,3.78
2019-03-12T02:03:04.996Z,3.79
2019-03-12T02:05:34.365Z,3.78
2019-03-12T02:08:02.368Z,3.70
2019-03-12T02:10:33.474Z,3.77
2019-03-12T02:13:01.532Z,3.77
2019-03-12T02:15:29.741Z,3.77
2019-03-12T02:17:57.760Z,3.66
2019-03-12T02:20:28.424Z,3.65
2019-03-12T02:22:56.571Z,3.58
2019-03-12T02:25:27.460Z,3.67
2019-03-12T02:27:55.754Z,3.61
2019-03-12T02:30:24.076Z,3.65
2019-03-12T02:32:52.127Z,3.67
2019-03-12T02:35:21.700Z,3.71
2019-03-12T02:37:52.393Z,3.74
2019-03-12T02:40:20.386Z,3.75
2019-03-12T02:42:48.528Z,3.78
2019-03-12T02:45:16.707Z,3.77
2019-03-12T02:47:44.629Z,3.79
2019-03-12T02:50:15.554Z,3.70
2019-03-12T02:52:43.729Z,3.74
2019-03-12T02:55:12.078Z,3.65
2019-03-12T02:57:40.289Z,3.59
2019-03-12T03:00:14.431Z,3.69
2019-03-12T03:02:42.491Z,3.78
2019-03-12T03:05:10.708Z,3.77
2019-03-12T03:08:07.129Z,3.72
2019-03-12T03:10:35.206Z,3.81
2019-03-12T03:13:04.140Z,3.78
2019-03-12T03:15:50.826Z,3.83
2019-03-12T03:18:18.836Z,3.75
2019-03-12T03:20:46.937Z,3.83
2019-03-12T03:23:14.977Z,3.83
2019-03-12T03:25:43.222Z,3.87
2019-03-12T03:28:11.350Z,3.88
2019-03-12T03:30:39.481Z,3.93
2019-03-12T03:33:10.064Z,3.83
2019-03-12T03:35:40.845Z,3.82
2019-03-12T03:38:11.313Z,3.83
2019-03-12T03:40:42.121Z,3.78
2019-03-12T03:43:12.869Z,3.65
2019-03-12T03:45:41.007Z,3.74
2019-03-12T03:48:09.044Z,3.76
2019-03-12T03:50:37.133Z,3.81
2019-03-12T03:53:05.270Z,3.81
2019-03-12T03:55:33.304Z,3.81
2019-03-12T03:58:01.403Z,3.89
2019-03-12T04:00:29.502Z,3.88
2019-03-12T04:02:57.940Z,3.92
2019-03-12T04:05:25.971Z,3.82
2019-03-12T04:07:54.081Z,3.81
2019-03-12T04:10:22.087Z,3.83
2019-03-12T04:12:50.209Z,3.85
2019-03-12T04:15:18.474Z,3.84
2019-03-12T04:17:46.566Z,3.78
2019-03-12T04:20:15.008Z,3.78
2019-03-12T04:22:43.094Z,3.72
2019-03-12T04:25:11.914Z,3.72
2019-03-12T04:27:40.131Z,3.61
2019-03-12T04:30:09.649Z,3.68
2019-03-12T04:32:38.074Z,3.69
2019-03-12T04:35:07.378Z,3.61
2019-03-12T04:37:35.451Z,3.63
2019-03-12T04:40:04.141Z,3.63
2019-03-12T04:42:32.131Z,3.63
2019-03-12T04:45:00.078Z,3.57
2019-03-12T04:47:28.319Z,3.65
2019-03-12T04:49:56.454Z,3.59
2019-03-12T04:52:24.465Z,3.38
2019-03-12T04:54:52.502Z,3.32
2019-03-12T04:57:20.612Z,3.33
2019-03-12T04:59:48.662Z,3.27
2019-03-12T05:02:16.848Z,3.40
2019-03-12T05:04:44.800Z,3.34
2019-03-12T05:07:13.082Z,3.35
2019-03-12T05:09:41.099Z,3.35
2019-03-12T05:12:09.183Z,3.26
2019-03-12T05:14:42.275Z,3.34
2019-03-12T05:17:17.669Z,3.30
2019-03-12T05:19:46.111Z,3.29
2019-03-12T05:22:15.111Z,3.38
2019-03-12T05:24:43.048Z,3.32
2019-03-12T05:27:11.127Z,3.31
2019-03-12T05:29:39.274Z,3.35
2019-03-12T05:32:07.532Z,3.30
2019-03-12T05:34:35.589Z,3.33
2019-03-12T05:37:03.807Z,3.33
2019-03-12T05:39:35.915Z,3.23
2019-03-12T05:42:04.025Z,3.14
2019-03-12T05:44:32.077Z,3.15
2019-03-12T05:47:00.184Z,3.09
2019-03-12T05:49:28.371Z,3.06
2019-03-12T05:51:57.179Z,3.18
2019-03-12T05:54:25.138Z,3.25
2019-03-12T05:56:53.174Z,3.24
2019-03-12T05:59:21.178Z,3.25
2019-03-12T06:01:50.006Z,3.27
2019-03-12T06:04:18.076Z,3.26
2019-03-12T06:06:46.183Z,3.32
2019-03-12T06:09:14.153Z,3.32
2019-03-12T06:11:41.998Z,3.44
2019-03-12T06:14:10.097Z,3.31
2019-03-12T06:16:38.174Z,3.28
2019-03-12T06:19:06.285Z,3.38
2019-03-12T06:21:34.329Z,3.45
2019-03-12T06:24:02.507Z,3.49
2019-03-12T06:26:30.453Z,3.49
2019-03-12T06:28:58.558Z,3.49
2019-03-12T06:31:45.114Z,3.61
2019-03-12T06:34:30.164Z,3.57
2019-03-12T06:37:23.908Z,3.54
2019-03-12T06:39:59.694Z,3.52
2019-03-12T06:43:02.374Z,3.50
2019-03-12T06:45:39.595Z,3.56
2019-03-12T06:48:23.556Z,3.67
2019-03-12T06:51:03.788Z,3.62
2019-03-12T06:53:49.818Z,3.57
2019-03-12T06:56:40.577Z,3.65
2019-03-12T06:59:25.661Z,3.66
2019-03-12T07:02:04.629Z,3.63
2019-03-12T07:04:40.240Z,3.69
2019-03-12T07:07:27.769Z,3.76
2019-03-12T07:10:18.014Z,3.79
2019-03-12T07:13:07.795Z,3.86
2019-03-12T07:15:44.168Z,3.93
2019-03-12T07:18:37.462Z,3.93
2019-03-12T07:21:24.329Z,3.99
2019-03-12T07:24:00.127Z,4.07
2019-03-12T07:26:52.429Z,4.13
2019-03-12T07:29:39.925Z,4.18
2019-03-12T07:32:30.526Z,4.27
2019-03-12T07:35:24.083Z,4.36
2019-03-12T07:38:03.523Z,4.96
2019-03-12T07:41:22.831Z,4.84
2019-03-12T07:44:10.668Z,4.83
2019-03-12T07:46:47.801Z,4.63
2019-03-12T07:49:35.192Z,4.57
2019-03-12T07:52:25.296Z,4.52
2019-03-12T07:55:12.931Z,4.59
2019-03-12T07:57:50.952Z,4.62
2019-03-12T08:00:41.463Z,4.68
2019-03-12T08:03:22.999Z,4.82
2019-03-12T08:06:02.683Z,4.79
2019-03-12T08:08:56.204Z,4.66
2019-03-12T08:11:40.351Z,4.66
2019-03-12T08:14:42.972Z,4.73
2019-03-12T08:17:23.296Z,4.85
2019-03-12T08:20:16.972Z,5.02
2019-03-12T08:23:00.579Z,5.04
2019-03-12T08:25:53.951Z,5.08
2019-03-12T08:28:30.110Z,5.16
2019-03-12T08:31:17.740Z,5.71
2019-03-12T08:34:10.325Z,6.20
2019-03-12T08:36:48.123Z,6.57
2019-03-12T08:39:38.330Z,6.89
2019-03-12T08:42:18.730Z,7.22
2019-03-12T08:45:01.286Z,7.50
2019-03-12T08:47:40.528Z,7.82
2019-03-12T08:50:35.007Z,8.17
2019-03-12T08:53:15.450Z,8.52
2019-03-12T08:55:56.052Z,8.16
2019-03-12T08:58:40.002Z,7.44
2019-03-12T09:40:25.510Z,7.92
2019-03-12T09:43:11.331Z,7.95
2019-03-12T09:45:57.601Z,7.77
2019-03-12T09:48:31.394Z,7.58
2019-03-12T09:51:05.549Z,7.31
2019-03-12T09:53:53.132Z,7.23
2019-03-12T09:56:49.299Z,7.13
2019-03-12T09:59:29.914Z,7.19
2019-03-12T10:02:16.234Z,7.14
2019-03-12T10:04:59.738Z,7.04
2019-03-12T10:07:48.229Z,7.06
2019-03-12T10:10:43.947Z,7.13
2019-03-12T10:13:27.238Z,7.18
2019-03-12T10:16:20.550Z,7.06
2019-03-12T10:19:14.242Z,7.08
2019-03-12T10:22:00.291Z,6.97
2019-03-12T10:27:51.911Z,6.99
2019-03-12T10:30:28.126Z,6.89
2019-03-12T10:33:27.729Z,6.98
2019-03-12T10:36:06.761Z,6.98
2019-03-12T10:39:42.782Z,7.07
2019-03-12T10:42:18.599Z,7.17
2019-03-12T10:45:11.696Z,7.22
2019-03-12T10:47:40.121Z,7.34
2019-03-12T10:50:08.451Z,7.40
2019-03-12T10:52:36.498Z,7.61
2019-03-12T10:55:12.973Z,7.64
2019-03-12T10:57:34.871Z,7.64
2019-03-12T11:00:03.956Z,7.54
2019-03-12T11:02:32.032Z,7.59
2019-03-12T11:05:00.184Z,7.64
2019-03-12T11:07:28.563Z,7.60
2019-03-12T11:09:56.598Z,7.55
2019-03-12T11:12:24.712Z,7.53
2019-03-12T11:14:52.730Z,7.57
2019-03-12T11:17:20.808Z,7.58
2019-03-12T11:19:48.757Z,7.44
2019-03-12T11:22:16.780Z,7.51
2019-03-12T11:24:44.926Z,7.46
2019-03-12T11:27:13.088Z,7.48
2019-03-12T11:29:41.109Z,7.52
2019-03-12T11:32:09.439Z,7.54
2019-03-12T11:34:38.725Z,7.63
2019-03-12T11:37:07.079Z,7.58
2019-03-12T11:39:35.276Z,7.62
2019-03-12T11:42:03.385Z,7.67
2019-03-12T11:44:31.307Z,7.72
2019-03-12T11:46:59.443Z,7.82
2019-03-12T11:49:27.465Z,8.27
2019-03-12T11:51:55.619Z,8.36
2019-03-12T11:54:36.582Z,8.31
2019-03-12T11:57:04.748Z,8.21
2019-03-12T11:59:32.877Z,8.17
2019-03-12T12:02:01.214Z,8.09
2019-03-12T12:04:29.125Z,8.09
2019-03-12T12:06:57.693Z,8.06
2019-03-12T12:09:25.766Z,8.17
2019-03-12T12:11:53.899Z,8.70
2019-03-12T12:14:21.928Z,9.12
2019-03-12T12:16:50.004Z,9.39
2019-03-12T12:19:18.693Z,9.16
2019-03-12T12:21:46.821Z,8.92
2019-03-12T12:24:14.768Z,8.75
2019-03-12T12:26:44.726Z,8.92
2019-03-12T12:29:13.801Z,9.06
2019-03-12T12:31:43.908Z,9.11
2019-03-12T12:34:11.883Z,9.44
2019-03-12T12:36:39.828Z,9.50
2019-03-12T12:39:08.083Z,9.58
2019-03-12T12:41:36.159Z,9.63
2019-03-12T12:44:04.576Z,9.97
2019-03-12T12:46:32.613Z,10.12
2019-03-12T12:49:00.652Z,10.19
2019-03-12T12:51:28.843Z,10.45
2019-03-12T12:53:56.935Z,10.75
2019-03-12T12:56:26.328Z,10.72
2019-03-12T12:58:54.451Z,10.75
2019-03-12T13:01:24.263Z,10.91
2019-03-12T13:03:52.356Z,10.91
2019-03-12T13:06:20.383Z,10.68
2019-03-12T13:08:48.841Z,10.57
2019-03-12T13:11:17.109Z,10.47
2019-03-12T13:13:45.144Z,10.42
2019-03-12T13:16:24.415Z,10.18
2019-03-12T13:18:43.142Z,10.01
2019-03-12T13:21:11.706Z,9.78
2019-03-12T13:23:39.946Z,9.77
2019-03-12T13:26:07.749Z,9.67
2019-03-12T13:28:35.723Z,9.68
2019-03-12T13:31:03.748Z,9.63
2019-03-12T13:33:31.742Z,9.71
2019-03-12T13:36:03.617Z,9.60
2019-03-12T13:38:44.732Z,9.53
2019-03-12T13:41:03.535Z,9.84
2019-03-12T13:43:32.017Z,10.14
2019-03-12T13:46:08.171Z,10.49
2019-03-12T13:48:39.344Z,10.54
2019-03-12T13:51:09.518Z,10.39
2019-03-12T13:53:39.517Z,10.58
2019-03-12T13:56:07.663Z,10.58
2019-03-12T13:58:38.263Z,10.78
2019-03-12T14:01:06.574Z,10.58
2019-03-12T14:03:34.760Z,10.29
2019-03-12T14:06:02.883Z,10.13
2019-03-12T14:08:31.912Z,9.89
2019-03-12T14:11:00.085Z,9.88
2019-03-12T14:13:28.191Z,10.15
2019-03-12T14:15:56.244Z,10.55
2019-03-12T14:18:24.413Z,10.84
2019-03-12T14:21:04.856Z,10.96
2019-03-12T14:23:38.721Z,11.15
2019-03-12T14:26:06.817Z,11.35
2019-03-12T14:28:35.869Z,11.40
2019-03-12T14:31:03.990Z,11.50
2019-03-12T14:33:37.241Z,11.55
2019-03-12T14:36:05.462Z,11.51
2019-03-12T14:38:33.578Z,11.57
2019-03-12T14:41:01.835Z,11.55
2019-03-12T14:43:29.941Z,11.26
2019-03-12T14:45:58.297Z,11.17
2019-03-12T14:48:37.949Z,11.13
2019-03-12T14:51:10.729Z,11.05
2019-03-12T14:53:39.481Z,10.97
2019-03-12T14:56:07.421Z,10.79
2019-03-12T14:58:35.627Z,10.63
2019-03-12T15:01:03.741Z,10.44
2019-03-12T15:03:31.917Z,10.28
2019-03-12T15:06:00.023Z,10.15
2019-03-12T15:08:28.113Z,10.08
2019-03-12T15:10:56.559Z,10.04
2019-03-12T15:13:24.550Z,9.90
2019-03-12T15:15:52.608Z,9.98
2019-03-12T15:18:20.538Z,9.93
2019-03-12T15:20:48.630Z,9.97
2019-03-12T15:23:16.764Z,9.93
2019-03-12T15:25:44.761Z,9.94
2019-03-12T15:28:12.702Z,9.85
2019-03-12T15:30:40.794Z,9.84
2019-03-12T15:33:08.652Z,9.79
2019-03-12T15:35:37.013Z,9.78
2019-03-12T15:38:05.042Z,9.76
2019-03-12T15:40:33.200Z,9.73
2019-03-12T15:43:01.246Z,9.68
2019-03-12T15:45:29.297Z,9.69
2019-03-12T15:47:57.421Z,9.78
2019-03-12T15:50:25.559Z,9.67
2019-03-12T15:52:54.152Z,9.59
2019-03-12T15:55:23.148Z,9.52
2019-03-12T15:57:51.085Z,9.44
2019-03-12T16:00:19.295Z,9.44
2019-03-12T16:02:47.508Z,9.45
2019-03-12T16:05:15.603Z,9.41
2019-03-12T16:07:44.556Z,9.38
2019-03-12T16:10:12.767Z,9.36
2019-03-12T16:12:40.927Z,9.29
2019-03-12T16:15:09.101Z,9.24
2019-03-12T16:17:37.226Z,9.20
2019-03-12T16:20:06.078Z,9.26
2019-03-12T16:22:34.000Z,9.19
2019-03-12T16:25:02.100Z,9.21
2019-03-12T16:27:30.183Z,9.16
2019-03-12T16:29:58.401Z,9.11
2019-03-12T16:32:26.473Z,9.07
2019-03-12T16:34:54.472Z,9.08
2019-03-12T16:37:26.452Z,9.02
2019-03-12T16:39:54.477Z,8.91
2019-03-12T16:42:34.243Z,8.82
2019-03-12T16:44:52.623Z,8.81
2019-03-12T16:47:20.736Z,8.77
2019-03-12T16:49:48.843Z,8.71
2019-03-12T16:52:16.923Z,8.73
2019-03-12T16:54:44.971Z,8.66
2019-03-12T16:57:13.074Z,8.65
2019-03-12T16:59:41.042Z,8.60
2019-03-12T17:02:09.194Z,8.43
2019-03-12T17:04:37.294Z,8.41
2019-03-12T17:07:05.475Z,8.38
2019-03-12T17:09:33.386Z,8.26
2019-03-12T17:12:01.469Z,8.21
2019-03-12T17:14:38.818Z,8.14
2019-03-12T17:16:59.521Z,8.25
2019-03-12T17:19:27.579Z,8.10
2019-03-12T17:21:55.580Z,8.04
2019-03-12T17:24:23.582Z,8.00
2019-03-12T17:26:51.716Z,7.90
2019-03-12T17:29:21.887Z,7.84
2019-03-12T17:31:49.981Z,7.77
2019-03-12T17:34:19.200Z,7.79
2019-03-12T17:36:47.283Z,7.83
2019-03-12T17:39:18.359Z,7.71
2019-03-12T17:41:46.538Z,7.57
2019-03-12T17:44:14.659Z,7.58
2019-03-12T17:46:42.926Z,7.50
2019-03-12T17:49:12.672Z,7.36
2019-03-12T17:51:41.039Z,7.31
2019-03-12T17:54:09.070Z,7.26
2019-03-12T17:56:37.194Z,7.24
2019-03-12T17:59:05.233Z,7.12
2019-03-12T18:01:33.432Z,7.04
2019-03-12T18:04:01.399Z,6.91
2019-03-12T18:08:17.752Z,7.06
2019-03-12T18:10:56.616Z,6.85
2019-03-12T18:13:26.350Z,6.84
2019-03-12T18:15:54.477Z,6.72
2019-03-12T18:19:34.964Z,6.62
2019-03-12T18:22:03.043Z,6.54
2019-03-12T18:24:31.189Z,6.64
2019-03-12T18:26:59.212Z,6.58
2019-03-12T18:29:27.252Z,6.56
2019-03-12T18:31:55.262Z,6.53
2019-03-12T18:34:23.290Z,6.48
2019-03-12T18:36:51.371Z,6.44
2019-03-12T18:39:19.409Z,6.36
2019-03-12T18:41:55.936Z,6.43
2019-03-12T18:44:25.531Z,6.41
2019-03-12T18:46:53.580Z,6.36
2019-03-12T18:49:21.518Z,6.33
2019-03-12T18:51:51.523Z,6.39
2019-03-12T18:54:19.475Z,6.29
2019-03-12T18:56:47.476Z,6.22
2019-03-12T18:59:15.507Z,6.26
2019-03-12T19:01:43.686Z,6.17
2019-03-12T19:04:11.498Z,6.17
2019-03-12T19:06:40.307Z,6.17
2019-03-12T19:09:08.828Z,6.13
2019-03-12T19:11:37.563Z,6.16
2019-03-12T19:14:05.845Z,6.12
2019-03-12T19:16:33.944Z,6.03
2019-03-12T19:19:01.975Z,5.99
2019-03-12T19:21:29.984Z,5.95
2019-03-12T19:23:58.065Z,5.91
2019-03-12T19:26:26.309Z,5.86
2019-03-12T19:28:54.371Z,6.03
2019-03-12T19:31:29.141Z,6.38
2019-03-12T19:34:00.803Z,6.46
2019-03-12T19:36:31.253Z,6.28
2019-03-12T19:38:59.409Z,6.05
2019-03-12T19:41:27.486Z,5.87
2019-03-12T19:43:56.109Z,5.84
2019-03-12T19:46:24.725Z,5.70
2019-03-12T19:48:53.066Z,5.72
2019-03-12T19:51:21.131Z,5.65
2019-03-12T19:53:50.259Z,5.70
2019-03-12T19:56:18.291Z,5.55
2019-03-12T19:58:46.416Z,5.56
2019-03-12T20:01:14.962Z,5.51
2019-03-12T20:03:43.342Z,5.44
2019-03-12T20:06:11.445Z,5.34
2019-03-12T20:08:39.611Z,5.38
2019-03-12T20:11:54.417Z,5.32
2019-03-12T20:14:49.760Z,5.30
2019-03-12T20:17:43.920Z,5.37
2019-03-12T20:20:48.946Z,5.31
2019-03-12T20:24:01.586Z,5.22
2019-03-12T20:26:59.090Z,5.26
2019-03-12T20:30:14.079Z,5.16
2019-03-12T20:33:18.529Z,5.05
2019-03-12T20:36:26.747Z,5.14
2019-03-12T20:39:36.354Z,5.14
2019-03-12T20:43:07.261Z,5.05
2019-03-12T20:46:12.510Z,5.06
2019-03-12T20:49:16.411Z,5.11
2019-03-12T20:52:34.957Z,5.16
2019-03-12T20:55:51.933Z,5.10
2019-03-12T20:59:03.160Z,5.18
2019-03-12T21:02:11.095Z,5.14
2019-03-12T21:05:34.735Z,5.13
2019-03-12T21:08:55.906Z,5.10
2019-03-12T21:12:16.293Z,5.07
2019-03-12T21:15:27.224Z,5.09
2019-03-12T21:18:31.233Z,5.23
2019-03-12T21:21:45.591Z,5.16
2019-03-12T21:24:46.014Z,5.18
2019-03-12T21:28:00.494Z,5.09
2019-03-12T21:30:28.617Z,5.06
2019-03-12T21:32:56.680Z,5.06
2019-03-12T21:35:24.920Z,5.07
2019-03-12T21:37:53.259Z,5.03
2019-03-12T21:40:21.394Z,5.09
2019-03-12T21:42:49.538Z,5.04
2019-03-12T21:45:17.770Z,5.09
2019-03-12T21:47:45.894Z,5.09
2019-03-12T21:50:14.153Z,5.12
2019-03-12T21:52:42.237Z,5.10
2019-03-12T21:55:10.662Z,5.10
2019-03-12T21:57:38.879Z,5.11
2019-03-12T22:00:10.898Z,5.12
2019-03-12T22:02:39.154Z,5.12
2019-03-12T22:05:07.219Z,5.09
2019-03-12T22:07:35.232Z,4.99
2019-03-12T22:10:03.401Z,5.04
2019-03-12T22:12:31.534Z,5.01
2019-03-12T22:14:59.473Z,4.99
2019-03-12T22:17:27.673Z,4.98
2019-03-12T22:19:55.710Z,5.08
2019-03-12T22:22:30.272Z,5.07
2019-03-12T22:25:01.585Z,5.07
2019-03-12T22:27:33.306Z,5.05
2019-03-12T22:30:04.114Z,5.03
2019-03-12T22:32:38.113Z,5.10
2019-03-12T22:35:09.401Z,5.03
2019-03-12T22:37:40.464Z,5.09
2019-03-12T22:40:11.395Z,5.15
2019-03-12T22:42:40.625Z,5.16
2019-03-12T22:45:09.229Z,5.12
2019-03-12T22:47:37.452Z,5.20
2019-03-12T22:50:08.437Z,5.27
2019-03-12T22:52:39.281Z,5.23
2019-03-12T22:55:10.662Z,5.28
2019-03-12T22:57:41.256Z,5.28
2019-03-12T23:00:10.662Z,5.26
2019-03-12T23:02:38.923Z,5.25
2019-03-12T23:05:07.360Z,5.32
2019-03-12T23:07:38.696Z,5.24
2019-03-12T23:10:09.812Z,5.28
2019-03-12T23:12:40.794Z,5.22
2019-03-12T23:15:10.084Z,5.27
2019-03-12T23:17:38.137Z,5.23
2019-03-12T23:20:07.687Z,5.23
2019-03-12T23:22:35.545Z,5.23
2019-03-12T23:25:14.234Z,5.29
2019-03-12T23:27:42.846Z,5.27
2019-03-12T23:30:12.272Z,5.24
2019-03-12T23:32:41.532Z,5.21
2019-03-12T23:35:09.873Z,5.12
2019-03-12T23:37:37.986Z,5.23
2019-03-12T23:40:06.302Z,5.16
2019-03-12T23:42:34.242Z,5.24
2019-03-12T23:45:02.194Z,5.23
2019-03-12T23:47:31.102Z,5.20
2019-03-12T23:49:59.136Z,5.19
2019-03-12T23:52:27.035Z,5.22
2019-03-12T23:54:55.054Z,5.28
2019-03-12T23:57:23.588Z,5.19
2019-03-12T23:59:51.356Z,5.18
